Terminal Aerodrome Forecast
Issued by NWS Chicago, IL

Home | Current Version | Previous Version | Graphics & Text | Print | Product List | Glossary On
Versions: 1 2 3 4 5 6 7 8 9 10 11 12 13 14 15 16 17 18 19 20 21 22 23 24 25
000
FTUS43 KLOT 272325
TAFRFD
TAF
KRFD 272325Z 2800/2824 19010KT P6SM VCSH SCT040 BKN100
      TEMPO 2803/2806 4SM SHRA BKN040
     FM280700 17008KT P6SM SCT040 BKN200
     FM281500 19014G22KT P6SM SCT040 BKN250=

USA.gov is the U.S. government's official web portal to all federal, state and local government web resources and services.